Time;durP1;ratioP1;P1;durP2;ratioP2;P2;SDS_P1;SDS_P2;PMS_P1;PMS_P2;Temp;Humidity;BMP_temperature;BMP_pressure;BME280_temperature;BME280_humidity;BME280_pressure;Samples;Min_cycle;Max_cycle;Signal;HPM_P1;HPM_P2
2023/03/10 00:01:15;;;;;;;;;0.00;0.00;;;;;13.73;58.79;99709.00;4999395;28;45395;-79
2023/03/10 00:03:41;;;;;;;;;3.00;0.00;;;;;13.81;58.58;99730.03;4996875;28;45640;-77
2023/03/10 00:06:08;;;;;;;;;0.00;0.00;;;;;13.85;57.82;99729.16;4999389;28;45851;-80
2023/03/10 00:08:34;;;;;;;;;1.00;0.00;;;;;13.96;58.18;99758.06;4999565;28;45398;-80
2023/03/10 00:10:59;;;;;;;;;0.00;0.00;;;;;14.00;58.27;99748.47;4999758;28;46248;-81
2023/03/10 00:13:25;;;;;;;;;0.00;0.00;;;;;14.02;58.20;99754.59;4999150;28;45411;-81
2023/03/10 00:15:51;;;;;;;;;0.50;0.00;;;;;14.11;57.68;99762.50;4996236;28;45466;-81
2023/03/10 00:18:16;;;;;;;;;0.00;0.00;;;;;14.17;57.70;99761.66;4998814;28;45479;-80
2023/03/10 00:20:42;;;;;;;;;0.00;0.00;;;;;14.21;57.54;99755.53;4999566;28;45640;-81
2023/03/10 00:23:07;;;;;;;;;0.00;0.00;;;;;14.19;57.35;99752.91;4998977;28;45435;-78
2023/03/10 00:25:33;;;;;;;;;0.33;0.00;;;;;14.27;57.10;99760.81;4999171;28;45591;-81
2023/03/10 00:27:58;;;;;;;;;1.00;0.00;;;;;14.30;56.78;99748.56;4999939;28;45427;-81
2023/03/10 00:30:24;;;;;;;;;1.00;0.00;;;;;14.40;56.48;99762.56;4999040;28;45501;-81
2023/03/10 00:32:49;;;;;;;;;0.00;0.00;;;;;14.44;56.49;99766.06;4998937;28;45411;-81
2023/03/10 00:35:15;;;;;;;;;0.00;0.00;;;;;14.40;56.34;99762.56;4999236;28;45422;-79
2023/03/10 00:37:41;;;;;;;;;1.00;0.00;;;;;14.47;56.04;99761.72;5000254;28;45497;-79
2023/03/10 00:40:13;;;;;;;;;0.00;0.00;;;;;14.46;56.21;99756.44;5008278;28;45455;-81
2023/03/10 00:42:39;;;;;;;;;0.00;0.00;;;;;14.51;56.08;99768.72;4998842;28;45360;-77
2023/03/10 00:45:05;;;;;;;;;2.00;0.00;;;;;14.51;55.89;99770.47;4999136;28;45426;-79
2023/03/10 00:47:31;;;;;;;;;0.00;0.00;;;;;14.61;55.78;99788.03;5014953;28;45612;-80
2023/03/10 00:49:56;;;;;;;;;1.00;0.00;;;;;14.63;55.68;99782.78;5002519;28;45494;-81
2023/03/10 00:52:22;;;;;;;;;2.00;1.00;;;;;14.63;55.82;99791.56;5002799;28;45561;-80
2023/03/10 00:54:47;;;;;;;;;0.67;0.00;;;;;14.65;55.66;99797.69;5007959;28;45594;-81
2023/03/10 00:57:13;;;;;;;;;0.00;0.00;;;;;14.58;55.79;99777.50;5003636;28;45387;-80
2023/03/10 00:59:38;;;;;;;;;0.33;0.00;;;;;14.64;55.71;99789.78;4999091;28;45415;-81
2023/03/10 01:02:04;;;;;;;;;0.00;0.00;;;;;14.62;55.64;99778.41;4998373;28;45304;-81
2023/03/10 01:04:29;;;;;;;;;0.00;0.00;;;;;14.68;55.49;99781.03;4998264;28;45493;-79
2023/03/10 01:06:55;;;;;;;;;0.00;0.00;;;;;14.68;55.23;99795.06;4998823;28;45420;-81
2023/03/10 01:09:21;;;;;;;;;1.00;0.00;;;;;14.65;55.31;99796.81;4998855;28;45993;-80
2023/03/10 01:11:46;;;;;;;;;0.00;0.00;;;;;14.69;55.61;99803.84;4998677;28;45475;-80
2023/03/10 01:14:16;;;;;;;;;0.00;0.00;;;;;14.73;55.30;99809.97;4998544;28;46331;-80
2023/03/10 01:16:42;;;;;;;;;0.00;0.00;;;;;14.71;55.25;99800.31;4999157;28;45448;-80
2023/03/10 01:19:07;;;;;;;;;0.00;0.00;;;;;14.81;54.84;99811.72;4998325;28;46143;-79
2023/03/10 01:21:36;;;;;;;;;0.00;0.00;;;;;14.83;55.03;99809.97;4998830;28;45353;-81
2023/03/10 01:24:03;;;;;;;;;0.00;0.00;;;;;14.87;54.97;99813.50;4998354;28;45518;-80
2023/03/10 01:26:29;;;;;;;;;0.00;0.00;;;;;14.86;55.13;99815.25;4999108;28;45473;-80
2023/03/10 01:28:55;;;;;;;;;0.00;0.00;;;;;14.86;54.76;99810.00;4998115;28;45474;-81
2023/03/10 01:31:21;;;;;;;;;0.00;0.00;;;;;14.87;54.94;99805.59;4996973;28;45277;-81
2023/03/10 01:33:47;;;;;;;;;1.00;0.00;;;;;14.85;54.72;99799.47;4998614;28;45600;-79
2023/03/10 01:36:16;;;;;;;;;0.00;0.00;;;;;14.83;54.88;99798.59;4998752;28;45440;-80
2023/03/10 01:38:43;;;;;;;;;0.00;0.00;;;;;14.75;55.09;99795.94;4998213;28;46058;-80
2023/03/10 01:41:10;;;;;;;;;0.00;0.00;;;;;14.81;54.72;99814.34;5003638;28;45231;-80
2023/03/10 01:43:38;;;;;;;;;1.00;1.00;;;;;14.76;54.49;99802.06;4998346;28;46452;-80
2023/03/10 01:46:03;;;;;;;;;1.00;0.00;;;;;14.82;54.80;99817.84;4998867;28;45381;-81
2023/03/10 01:48:34;;;;;;;;;2.00;1.00;;;;;14.82;54.67;99818.75;4997829;28;45808;-78
2023/03/10 01:51:00;;;;;;;;;0.00;0.00;;;;;14.83;54.49;99819.63;4997089;28;45511;-82
2023/03/10 01:53:28;;;;;;;;;1.00;0.00;;;;;14.82;54.56;99813.50;4997943;28;45358;-80
2023/03/10 01:55:59;;;;;;;;;0.00;0.00;;;;;14.80;54.69;99811.72;4998125;28;45671;-80
2023/03/10 01:58:31;;;;;;;;;6.00;6.00;;;;;14.75;54.74;99803.84;4999878;28;45563;-81
2023/03/10 02:00:57;;;;;;;;;2.00;2.00;;;;;14.79;54.63;99808.22;4997506;28;45513;-82
2023/03/10 02:03:33;;;;;;;;;1.67;1.67;;;;;14.81;54.75;99808.22;4997903;28;45605;-79
2023/03/10 02:06:06;;;;;;;;;2.00;2.00;;;;;14.77;54.61;99820.50;4998471;28;45530;-81
2023/03/10 02:08:39;;;;;;;;;15.25;13.50;;;;;14.78;54.32;99816.09;4997994;28;46225;-76
2023/03/10 02:11:06;;;;;;;;;7.00;6.25;;;;;14.84;54.83;99832.78;4997434;28;46121;-79
2023/03/10 02:13:31;;;;;;;;;6.00;5.00;;;;;14.81;54.64;99830.13;4997401;28;45441;-78
2023/03/10 02:15:57;;;;;;;;;4.00;4.00;;;;;14.79;54.71;99824.00;4997789;28;45338;-79
2023/03/10 02:18:24;;;;;;;;;6.75;5.75;;;;;14.79;54.45;99839.78;4997509;28;46120;-76
2023/03/10 02:21:20;;;;;;;;;19.75;16.00;;;;;14.81;54.57;99838.03;4997651;28;45618;-81
2023/03/10 02:24:17;;;;;;;;;5.75;5.75;;;;;14.90;54.60;99853.81;4995236;28;45570;-80
2023/03/10 02:26:55;;;;;;;;;6.50;6.00;;;;;14.92;54.45;99851.16;4997743;28;45459;-78
2023/03/10 02:29:42;;;;;;;;;2.00;2.00;;;;;14.93;54.65;99863.47;4994785;28;45337;-81
2023/03/10 02:32:10;;;;;;;;;1.00;1.00;;;;;14.92;54.43;99848.53;4997071;28;45482;-78
2023/03/10 02:34:35;;;;;;;;;2.00;1.67;;;;;14.91;54.56;99839.78;4997222;28;45454;-80
2023/03/10 02:37:01;;;;;;;;;1.33;0.67;;;;;14.94;54.54;99849.44;4997446;28;45333;-81
2023/03/10 02:39:26;;;;;;;;;3.00;2.67;;;;;14.91;54.45;99857.31;4997738;28;46210;-80
2023/03/10 02:41:52;;;;;;;;;4.00;4.00;;;;;14.87;54.53;99872.22;4996849;28;45468;-79
2023/03/10 02:44:20;;;;;;;;;2.00;1.00;;;;;14.88;54.30;99873.97;4996011;28;46166;-79
2023/03/10 02:46:46;;;;;;;;;5.25;5.00;;;;;14.89;54.39;99878.34;4998234;28;45389;-81
2023/03/10 02:49:12;;;;;;;;;6.75;6.75;;;;;14.96;54.39;99894.13;4997095;28;45824;-79
2023/03/10 02:51:42;;;;;;;;;2.00;2.00;;;;;14.97;54.55;99899.41;4996744;28;45600;-80
2023/03/10 02:54:08;;;;;;;;;2.00;2.00;;;;;14.97;54.61;99907.28;4988571;28;45475;-79
2023/03/10 02:56:35;;;;;;;;;0.33;0.33;;;;;14.86;55.50;99898.50;4997540;28;45296;-80
2023/03/10 02:59:02;;;;;;;;;1.67;0.00;;;;;14.86;56.00;99940.56;4995433;28;45528;-73
2023/03/10 03:01:29;;;;;;;;;0.00;0.00;;;;;14.75;55.88;99953.69;5009032;28;45485;-73
2023/03/10 03:03:55;;;;;;;;;2.00;1.00;;;;;14.72;57.01;99961.56;4997101;28;45375;-74
2023/03/10 03:06:21;;;;;;;;;2.00;1.00;;;;;14.59;59.06;99967.66;4997112;28;45388;-74
2023/03/10 03:08:47;;;;;;;;;1.00;1.00;;;;;14.59;58.29;99960.66;4997425;28;45446;-74
2023/03/10 03:11:13;;;;;;;;;1.33;0.00;;;;;14.64;60.09;99984.31;4996582;28;45478;-73
2023/03/10 03:13:39;;;;;;;;;2.00;2.00;;;;;14.62;60.02;99960.69;4996915;28;45708;-78
2023/03/10 03:16:09;;;;;;;;;2.00;1.00;;;;;14.61;61.25;99972.03;4996614;28;45604;-78
2023/03/10 03:18:35;;;;;;;;;3.00;2.00;;;;;14.58;62.73;99986.91;4988397;28;45699;-80
2023/03/10 03:21:11;;;;;;;;;2.67;2.00;;;;;14.65;62.77;99999.22;4996105;28;45502;-77
2023/03/10 03:23:37;;;;;;;;;3.00;2.00;;;;;14.40;65.90;99996.41;4994970;28;45463;-80
2023/03/10 03:26:04;;;;;;;;;2.33;1.00;;;;;14.48;65.12;100005.25;4996933;28;45508;-82
2023/03/10 03:28:30;;;;;;;;;3.67;3.00;;;;;14.45;65.80;99985.97;4993219;28;47033;-75
2023/03/10 03:30:56;;;;;;;;;3.00;2.33;;;;;14.39;65.96;99985.94;4996503;28;45562;-73
2023/03/10 03:33:22;;;;;;;;;3.33;2.33;;;;;14.30;67.40;100005.13;4997036;28;45541;-78
2023/03/10 03:35:47;;;;;;;;;4.00;2.00;;;;;14.31;67.68;100012.16;4997010;28;45375;-81
2023/03/10 03:38:13;;;;;;;;;5.00;2.33;;;;;14.27;67.42;100018.25;4996407;28;45386;-80
2023/03/10 03:40:38;;;;;;;;;4.00;2.00;;;;;14.35;67.29;100029.69;4994977;28;45329;-80
2023/03/10 03:43:04;;;;;;;;;4.33;2.00;;;;;14.36;66.96;100023.56;4995217;28;45368;-80
2023/03/10 03:45:31;;;;;;;;;4.00;3.00;;;;;14.36;67.16;100027.94;4997150;28;45420;-79
2023/03/10 03:47:57;;;;;;;;;3.25;2.75;;;;;14.36;67.06;100028.81;4996043;28;46249;-76
2023/03/10 03:50:23;;;;;;;;;5.00;2.00;;;;;14.37;67.43;100041.09;4997473;28;45445;-79
2023/03/10 03:52:49;;;;;;;;;4.67;2.00;;;;;14.24;68.15;100042.75;4996198;28;45587;-81
2023/03/10 03:55:15;;;;;;;;;6.00;3.33;;;;;14.25;67.82;100048.91;4997626;28;45372;-82
2023/03/10 03:57:41;;;;;;;;;4.00;2.00;;;;;14.32;67.62;100063.81;4996714;28;46134;-80
2023/03/10 04:00:13;;;;;;;;;5.00;2.67;;;;;14.21;67.99;100070.78;4991322;28;45366;-77
2023/03/10 04:02:39;;;;;;;;;5.33;3.00;;;;;14.22;68.04;100073.38;4997139;28;45534;-77
2023/03/10 04:05:06;;;;;;;;;6.33;3.00;;;;;14.28;67.91;100085.69;4996996;28;45434;-78
2023/03/10 04:07:32;;;;;;;;;5.00;2.25;;;;;14.25;67.91;100078.66;4997397;28;45435;-78
2023/03/10 04:09:57;;;;;;;;;8.33;4.00;;;;;14.11;67.65;100075.94;4996023;28;45717;-81
2023/03/10 04:12:26;;;;;;;;;5.75;3.00;;;;;14.21;68.00;100091.78;4997296;28;45278;-81
2023/03/10 04:14:51;;;;;;;;;2.00;2.00;;;;;14.15;68.09;100091.75;4996109;28;45270;-81
2023/03/10 04:17:17;;;;;;;;;2.00;2.00;;;;;14.21;68.10;100110.16;4996840;28;46219;-81
2023/03/10 04:19:42;;;;;;;;;6.00;3.75;;;;;14.13;67.79;100096.97;4997015;28;45410;-81
2023/03/10 04:22:08;;;;;;;;;3.50;2.75;;;;;14.19;67.38;100109.28;4997274;28;45450;-81
2023/03/10 04:24:37;;;;;;;;;4.00;2.00;;;;;14.13;67.37;100097.84;4997199;28;45374;-82
2023/03/10 04:27:03;;;;;;;;;2.67;2.33;;;;;14.21;66.99;100112.78;4996781;28;45340;-82
2023/03/10 04:29:28;;;;;;;;;4.00;3.00;;;;;14.17;67.29;100125.03;4997032;28;45424;-82
2023/03/10 04:31:54;;;;;;;;;5.33;3.33;;;;;14.11;67.12;100115.34;4997252;28;45229;-81
2023/03/10 04:34:19;;;;;;;;;8.00;3.75;;;;;14.07;66.47;100125.81;4996091;28;45526;-80
2023/03/10 04:36:45;;;;;;;;;6.67;4.00;;;;;14.00;66.34;100122.22;4996782;28;46057;-76
2023/03/10 04:39:10;;;;;;;;;5.00;2.00;;;;;14.03;66.15;100116.16;4998812;28;45475;-82
2023/03/10 04:41:36;;;;;;;;;3.67;2.00;;;;;14.06;66.02;100124.91;4999422;28;45347;-79
2023/03/10 04:44:02;;;;;;;;;3.67;3.00;;;;;14.12;65.37;100139.84;4999075;28;45353;-82
2023/03/10 04:46:27;;;;;;;;;2.33;2.00;;;;;14.11;65.29;100146.84;4998823;28;46186;-82
2023/03/10 04:48:54;;;;;;;;;4.00;2.00;;;;;14.13;64.82;100131.13;5014093;28;45546;-81
2023/03/10 04:51:20;;;;;;;;;4.33;2.00;;;;;14.18;64.66;100139.91;4998859;28;45479;-79
2023/03/10 04:53:46;;;;;;;;;8.33;5.00;;;;;14.16;64.85;100159.16;4998531;28;45562;-83
2023/03/10 04:56:12;;;;;;;;;3.67;2.67;;;;;14.14;64.32;100164.38;4999083;28;46012;-81
2023/03/10 04:58:37;;;;;;;;;4.00;2.00;;;;;14.09;64.11;100155.59;5014616;28;45647;-82
2023/03/10 05:01:08;;;;;;;;;3.00;2.00;;;;;14.19;63.98;100178.47;4999159;28;45459;-82
2023/03/10 05:03:34;;;;;;;;;4.00;1.00;;;;;14.09;63.64;100161.72;4999035;28;45284;-82
2023/03/10 05:05:59;;;;;;;;;3.33;1.00;;;;;14.03;63.23;100131.91;4999054;28;45561;-81
2023/03/10 05:08:25;;;;;;;;;4.67;2.00;;;;;14.14;63.46;100174.88;4997955;28;45347;-82
2023/03/10 05:10:50;;;;;;;;;6.33;4.00;;;;;13.98;63.28;100146.72;4999581;28;45422;-81
2023/03/10 05:13:16;;;;;;;;;2.67;2.00;;;;;14.01;63.41;100163.41;5000277;28;45441;-76
2023/03/10 05:15:42;;;;;;;;;3.00;1.00;;;;;14.13;63.06;100167.91;4999035;28;45810;-82
2023/03/10 05:18:09;;;;;;;;;3.00;2.00;;;;;14.17;63.02;100176.69;4999127;28;45581;-80
2023/03/10 05:20:36;;;;;;;;;3.33;2.67;;;;;14.07;62.76;100170.47;4986873;28;45494;-79
2023/03/10 05:23:02;;;;;;;;;4.00;2.00;;;;;14.03;62.58;100177.44;4994819;28;45411;-81
2023/03/10 05:25:27;;;;;;;;;3.00;2.00;;;;;14.00;62.85;100177.38;4998627;28;45415;-80
2023/03/10 05:27:53;;;;;;;;;3.33;2.00;;;;;13.92;62.75;100179.91;4999292;28;45425;-82
2023/03/10 05:30:19;;;;;;;;;5.00;3.00;;;;;13.92;62.81;100179.06;4998718;28;45561;-75
2023/03/10 05:32:45;;;;;;;;;3.67;2.00;;;;;14.00;62.90;100164.25;4997282;28;45578;-82
2023/03/10 05:35:12;;;;;;;;;3.75;2.00;;;;;14.08;62.69;100180.09;4998558;28;46398;-81
2023/03/10 05:37:40;;;;;;;;;4.67;2.00;;;;;14.01;62.54;100178.28;4998771;28;45351;-81
2023/03/10 05:40:15;;;;;;;;;5.00;2.00;;;;;14.03;62.68;100187.06;4996411;28;45537;-82
2023/03/10 05:42:40;;;;;;;;;5.67;3.00;;;;;14.11;62.55;100188.00;4999049;28;45509;-81
2023/03/10 05:45:13;;;;;;;;;6.00;4.00;;;;;14.04;63.08;100188.81;4997619;28;45544;-81
2023/03/10 05:47:39;;;;;;;;;3.67;1.67;;;;;14.01;62.95;100179.16;4998199;28;45434;-81
2023/03/10 05:50:06;;;;;;;;;12.25;2.75;;;;;13.91;63.08;100193.94;4995268;28;45443;-81
2023/03/10 05:52:38;;;;;;;;;6.00;2.00;;;;;14.08;62.93;100219.47;4998010;28;45517;-75
2023/03/10 05:55:05;;;;;;;;;4.00;3.00;;;;;14.03;62.81;100195.81;4998080;28;46260;-81
2023/03/10 05:57:33;;;;;;;;;3.67;2.33;;;;;13.96;63.33;100195.72;4997935;28;45434;-80
2023/03/10 06:00:09;;;;;;;;;4.00;2.00;;;;;14.02;63.49;100211.53;4997656;28;46009;-81
2023/03/10 06:02:38;;;;;;;;;3.00;2.00;;;;;14.03;63.37;100208.94;4995894;28;45449;-77
2023/03/10 06:05:05;;;;;;;;;2.67;2.00;;;;;14.00;63.52;100221.16;4996179;28;45387;-81
2023/03/10 06:07:32;;;;;;;;;4.67;2.00;;;;;13.99;63.56;100206.28;4997335;28;45474;-81
2023/03/10 06:09:57;;;;;;;;;6.33;2.33;;;;;14.07;63.44;100215.97;4994191;28;45540;-82
2023/03/10 06:12:23;;;;;;;;;4.33;3.00;;;;;14.02;63.55;100207.16;4997045;28;45880;-82
2023/03/10 06:14:48;;;;;;;;;3.00;2.00;;;;;14.07;63.86;100209.88;4996459;28;45970;-81
2023/03/10 06:17:14;;;;;;;;;3.00;2.00;;;;;14.18;64.04;100223.09;4995394;28;45583;-81
2023/03/10 06:19:39;;;;;;;;;6.00;3.00;;;;;14.17;64.65;100205.59;4996711;28;45885;-81
2023/03/10 06:22:05;;;;;;;;;7.00;4.67;;;;;14.18;64.37;100207.31;4996186;28;45713;-74
2023/03/10 06:24:30;;;;;;;;;5.67;3.00;;;;;14.19;64.34;100203.84;4995554;28;47816;-82
2023/03/10 06:26:56;;;;;;;;;4.00;3.00;;;;;14.24;64.03;100217.91;4989463;28;46189;-81
2023/03/10 06:29:22;;;;;;;;;4.67;3.00;;;;;14.33;64.48;100228.50;4979690;28;45349;-82
2023/03/10 06:31:47;;;;;;;;;5.75;3.00;;;;;14.24;65.02;100233.66;4997273;28;45434;-82
2023/03/10 06:34:13;;;;;;;;;5.33;3.67;;;;;14.24;65.51;100236.28;4997479;28;45870;-81
2023/03/10 06:36:39;;;;;;;;;3.75;2.00;;;;;14.29;66.05;100274.88;4996009;28;45403;-80
2023/03/10 06:39:06;;;;;;;;;3.00;3.00;;;;;14.25;67.46;100274.84;4998170;28;45423;-82
2023/03/10 06:41:32;;;;;;;;;5.33;2.67;;;;;14.25;67.76;100272.22;4998128;28;45740;-82
2023/03/10 06:43:57;;;;;;;;;4.00;3.33;;;;;14.14;68.31;100253.69;4996519;28;45433;-82
2023/03/10 06:46:24;;;;;;;;;4.33;3.33;;;;;14.20;68.08;100281.78;4995893;28;45437;-80
2023/03/10 06:48:50;;;;;;;;;7.33;3.67;;;;;14.13;68.08;100284.34;4995862;28;45420;-81
2023/03/10 06:51:18;;;;;;;;;1.00;1.00;;;;;14.01;68.90;100284.22;4997586;28;45555;-80
2023/03/10 06:53:44;;;;;;;;;5.67;4.67;;;;;14.05;69.20;100300.91;4996295;28;45540;-81
2023/03/10 06:56:18;;;;;;;;;5.50;4.75;;;;;13.92;71.08;100305.97;4982603;28;45531;-81
2023/03/10 06:58:45;;;;;;;;;8.00;4.33;;;;;13.75;71.86;100293.50;4994433;28;45458;-80
2023/03/10 07:01:39;;;;;;;;;4.33;3.67;;;;;13.69;70.73;100289.06;4997673;28;45787;-81
2023/03/10 07:04:05;;;;;;;;;5.00;3.67;;;;;13.78;70.34;100296.16;4990234;28;46324;-81
2023/03/10 07:06:31;;;;;;;;;4.67;2.67;;;;;13.71;70.24;100290.84;4998131;28;45476;-81
2023/03/10 07:08:57;;;;;;;;;6.00;3.00;;;;;13.84;69.35;100319.88;4999949;28;45486;-80
2023/03/10 07:11:24;;;;;;;;;4.67;2.33;;;;;13.84;69.89;100327.75;5002095;28;45439;-77
2023/03/10 07:13:50;;;;;;;;;6.00;2.33;;;;;13.80;69.49;100331.19;5005412;28;46391;-81
2023/03/10 07:16:17;;;;;;;;;3.67;2.00;;;;;13.83;68.73;100331.25;5016611;28;45438;-74
2023/03/10 07:18:45;;;;;;;;;4.67;2.00;;;;;13.88;68.82;100319.06;5022503;28;45221;-76
2023/03/10 07:21:36;;;;;;;;;6.25;4.25;;;;;13.92;68.59;100339.22;5023629;28;44659;-77
2023/03/10 07:24:01;;;;;;;;;16.00;13.75;;;;;14.01;68.24;100349.00;5030761;28;47257;-81
2023/03/10 07:26:36;;;;;;;;;7.00;4.00;;;;;14.03;67.84;100328.88;4997446;28;45406;-82
2023/03/10 07:29:03;;;;;;;;;4.67;2.67;;;;;14.18;66.91;100339.56;4998654;28;45423;-74
2023/03/10 07:31:29;;;;;;;;;2.00;1.33;;;;;14.33;66.43;100346.75;5004145;28;45690;-82
2023/03/10 07:33:54;;;;;;;;;3.67;3.00;;;;;14.31;65.87;100344.09;5003791;28;45452;-82
2023/03/10 07:36:21;;;;;;;;;9.00;8.00;;;;;14.46;65.39;100355.63;4999938;28;45379;-81
2023/03/10 07:38:47;;;;;;;;;5.67;3.00;;;;;14.31;65.60;100341.47;5007408;28;45391;-80
2023/03/10 07:41:19;;;;;;;;;2.33;1.67;;;;;14.29;65.83;100369.47;5003155;28;45533;-79
2023/03/10 07:43:45;;;;;;;;;2.67;1.33;;;;;14.27;65.75;100375.59;4996828;28;45720;-82
2023/03/10 07:46:13;;;;;;;;;3.33;2.00;;;;;14.32;66.23;100358.09;5005022;28;45375;-81
2023/03/10 07:48:40;;;;;;;;;7.25;4.25;;;;;14.19;65.64;100350.97;4994890;28;45453;-82
2023/03/10 07:51:06;;;;;;;;;4.33;3.33;;;;;14.26;66.17;100374.69;5005019;28;45442;-82
2023/03/10 07:53:32;;;;;;;;;4.33;2.00;;;;;14.21;66.75;100391.28;5001770;28;47978;-80
2023/03/10 07:55:58;;;;;;;;;4.00;2.67;;;;;14.25;66.71;100393.94;4995078;28;45451;-82
2023/03/10 07:58:23;;;;;;;;;3.00;2.00;;;;;14.21;66.63;100388.66;5004253;28;45601;-74
2023/03/10 08:00:54;;;;;;;;;3.00;1.00;;;;;14.29;66.66;100392.25;5002026;28;45459;-73
2023/03/10 08:03:20;;;;;;;;;5.33;4.33;;;;;14.30;67.38;100394.00;5001400;28;45431;-78
2023/03/10 08:05:46;;;;;;;;;2.00;1.33;;;;;14.45;66.82;100406.47;4995898;28;45561;-82
2023/03/10 08:08:11;;;;;;;;;3.67;2.00;;;;;14.51;66.26;100402.13;4996965;28;45497;-81
2023/03/10 08:10:37;;;;;;;;;5.33;4.33;;;;;14.51;66.36;100391.63;4996263;28;45536;-82
2023/03/10 08:13:03;;;;;;;;;5.67;4.33;;;;;14.61;66.29;100418.06;4996613;28;46188;-82
2023/03/10 08:15:28;;;;;;;;;3.00;2.00;;;;;14.56;66.58;100414.44;4999807;28;45342;-82
2023/03/10 08:17:57;;;;;;;;;3.33;3.00;;;;;14.70;66.75;100423.41;5000060;28;45481;-81
2023/03/10 08:20:26;;;;;;;;;3.00;3.00;;;;;14.84;66.60;100424.47;5000076;28;45573;-80
2023/03/10 08:23:03;;;;;;;;;22.00;15.75;;;;;15.05;66.38;100417.66;4998881;28;45552;-81
2023/03/10 08:25:35;;;;;;;;;24.75;18.50;;;;;15.27;65.46;100410.81;4999092;28;45384;-71
2023/03/10 08:28:00;;;;;;;;;9.75;7.25;;;;;15.45;65.13;100412.72;5000957;28;45394;-78
2023/03/10 08:30:26;;;;;;;;;4.00;3.00;;;;;15.69;64.64;100401.50;5004147;28;45608;-75
2023/03/10 08:32:52;;;;;;;;;5.67;4.33;;;;;15.90;64.00;100401.66;4987886;28;46739;-80
2023/03/10 08:35:17;;;;;;;;;4.33;2.00;;;;;15.98;63.57;100393.81;4995823;28;45492;-85
2023/03/10 08:37:45;;;;;;;;;10.67;9.00;;;;;15.89;62.96;100393.75;4999616;28;45541;-89
2023/03/10 08:40:13;;;;;;;;;10.67;9.00;;;;;15.98;62.81;100401.72;5001839;28;45174;-81
2023/03/10 08:42:39;;;;;;;;;9.75;9.00;;;;;16.04;62.90;100401.75;4999810;28;46018;-89
2023/03/10 08:45:06;;;;;;;;;11.75;9.25;;;;;15.95;62.59;100354.25;4998596;28;45546;-80
2023/03/10 08:47:32;;;;;;;;;8.25;7.25;;;;;16.27;62.24;100400.97;4997313;28;45553;-75
2023/03/10 08:49:57;;;;;;;;;8.00;6.00;;;;;16.22;62.32;100410.63;4998153;28;45468;-84
2023/03/10 08:52:23;;;;;;;;;6.00;3.00;;;;;16.19;62.55;100410.59;4996826;28;46794;-85
2023/03/10 08:54:49;;;;;;;;;5.00;4.33;;;;;16.15;62.29;100414.09;5000625;28;45310;-85
2023/03/10 08:57:14;;;;;;;;;5.00;3.33;;;;;16.06;61.82;100418.44;4997555;28;45534;-82
2023/03/10 08:59:40;;;;;;;;;8.33;4.00;;;;;16.09;60.80;100426.38;5000042;28;45577;-85
2023/03/10 09:02:06;;;;;;;;;10.75;10.50;;;;;16.19;61.03;100426.41;4998097;28;45995;-79
2023/03/10 09:04:31;;;;;;;;;2.00;2.00;;;;;16.32;60.67;100420.34;4998507;28;45201;-82
2023/03/10 09:06:57;;;;;;;;;5.00;3.00;;;;;16.51;60.22;100426.53;4998930;28;45703;-78
2023/03/10 09:09:22;;;;;;;;;4.33;3.00;;;;;16.55;60.25;100430.94;4998574;28;45665;-77
2023/03/10 09:11:48;;;;;;;;;3.00;3.00;;;;;16.45;58.72;100435.34;4998782;28;45553;-73
2023/03/10 09:14:16;;;;;;;;;4.00;3.00;;;;;16.45;60.26;100451.16;5001903;28;45407;-83
2023/03/10 09:16:42;;;;;;;;;5.00;3.00;;;;;16.55;59.71;100461.72;4992860;28;45427;-86
2023/03/10 09:19:08;;;;;;;;;6.00;4.33;;;;;16.52;59.31;100456.47;4997294;28;45465;-86
2023/03/10 09:21:33;;;;;;;;;6.00;3.00;;;;;16.44;59.37;100472.22;5004463;28;45257;-79
2023/03/10 09:24:02;;;;;;;;;5.00;3.00;;;;;16.46;59.66;100458.19;4988016;28;45400;-76
2023/03/10 09:26:28;;;;;;;;;5.67;2.67;;;;;16.52;59.58;100459.97;5002656;28;45385;-91
2023/03/10 09:28:54;;;;;;;;;3.33;2.33;;;;;16.57;59.69;100458.22;4997271;28;45687;-78
2023/03/10 09:31:23;;;;;;;;;8.00;4.00;;;;;16.64;58.78;100475.84;5009707;28;45397;-74
2023/03/10 09:33:49;;;;;;;;;6.67;3.00;;;;;16.67;58.94;100469.69;5000180;28;45621;-80
2023/03/10 09:36:15;;;;;;;;;4.67;3.33;;;;;16.85;58.90;100484.72;4995014;28;45568;-79
2023/03/10 09:38:41;;;;;;;;;3.67;3.00;;;;;16.93;58.39;100487.38;4998171;28;45502;-79
2023/03/10 09:41:09;;;;;;;;;2.00;2.00;;;;;16.96;58.48;100487.41;4997379;28;45971;-79
2023/03/10 09:43:41;;;;;;;;;7.33;5.00;;;;;17.04;58.23;100489.19;4997736;28;45456;-82
2023/03/10 09:46:45;;;;;;;;;4.33;3.00;;;;;17.05;58.36;100490.97;4998210;28;45428;-82
2023/03/10 09:49:28;;;;;;;;;7.67;3.00;;;;;16.98;58.25;100475.09;4998054;28;45379;-79
2023/03/10 09:51:54;;;;;;;;;4.33;2.67;;;;;16.78;58.71;100491.72;4982839;28;46308;-81
2023/03/10 09:54:33;;;;;;;;;3.33;3.00;;;;;16.83;59.35;100503.22;4997956;28;45388;-81
2023/03/10 09:56:59;;;;;;;;;5.00;3.67;;;;;16.95;58.58;100493.56;4997774;28;45485;-83
2023/03/10 09:59:35;;;;;;;;;5.00;3.67;;;;;16.90;58.44;100506.75;4997941;28;45503;-89
2023/03/10 10:02:14;;;;;;;;;4.00;3.00;;;;;16.92;58.41;100501.47;4998131;28;45429;-87
2023/03/10 10:04:41;;;;;;;;;6.33;4.00;;;;;17.03;58.57;100497.09;4998148;28;45488;-87
2023/03/10 10:07:15;;;;;;;;;5.33;4.33;;;;;17.14;58.38;100502.41;4996849;28;45560;-83
2023/03/10 10:10:11;;;;;;;;;4.00;3.00;;;;;17.16;58.33;100504.16;4997436;28;45554;-80
2023/03/10 10:12:37;;;;;;;;;4.00;2.00;;;;;17.28;57.62;100487.47;4997219;28;46319;-84
2023/03/10 10:15:14;;;;;;;;;2.67;2.33;;;;;17.38;57.14;100488.38;4997085;28;45419;-84
2023/03/10 10:17:46;;;;;;;;;2.00;1.00;;;;;17.42;57.12;100487.50;4994226;28;45443;-85
2023/03/10 10:20:42;;;;;;;;;8.00;5.00;;;;;17.52;57.36;100481.34;4997594;28;45443;-85
2023/03/10 10:23:39;;;;;;;;;5.33;3.00;;;;;17.57;56.87;100490.16;4997192;28;46165;-85
2023/03/10 10:26:19;;;;;;;;;2.67;2.67;;;;;17.49;57.33;100494.56;4969988;28;45579;-85
2023/03/10 10:28:55;;;;;;;;;5.67;3.00;;;;;17.51;56.93;100490.16;4998136;28;45365;-85
2023/03/10 10:31:23;;;;;;;;;5.00;3.33;;;;;17.49;57.16;100487.50;4997413;28;45558;-84
2023/03/10 10:33:59;;;;;;;;;5.67;3.00;;;;;17.44;57.21;100480.44;4996415;28;45497;-82
2023/03/10 10:36:34;;;;;;;;;6.00;3.67;;;;;17.48;57.06;100480.44;4998275;28;45549;-82
2023/03/10 10:39:01;;;;;;;;;6.00;5.00;;;;;17.47;57.37;100480.47;4997397;28;45493;-83
2023/03/10 10:41:31;;;;;;;;;4.67;2.33;;;;;17.46;57.21;100484.84;4997726;28;45577;-85
2023/03/10 10:44:06;;;;;;;;;12.33;7.00;;;;;17.36;57.33;100491.00;4997188;28;45442;-85
2023/03/10 10:46:32;;;;;;;;;5.67;4.00;;;;;17.30;57.50;100488.34;4997071;28;45355;-85
2023/03/10 10:49:25;;;;;;;;;4.00;3.00;;;;;17.41;57.77;100488.41;4997072;28;45426;-85
2023/03/10 10:52:00;;;;;;;;;8.33;6.67;;;;;17.40;57.23;100487.47;4996775;28;45408;-85
2023/03/10 10:54:39;;;;;;;;;6.00;5.00;;;;;17.48;57.46;100487.50;4995587;28;45474;-86
2023/03/10 10:57:17;;;;;;;;;4.00;3.00;;;;;17.63;56.94;100489.28;4996753;28;45837;-85
2023/03/10 10:59:43;;;;;;;;;6.67;5.33;;;;;17.79;56.71;100480.47;4995990;28;45632;-81
2023/03/10 11:02:31;;;;;;;;;3.00;1.67;;;;;17.90;56.17;100485.75;4997419;28;45993;-85
2023/03/10 11:05:28;;;;;;;;;5.00;4.00;;;;;18.08;55.64;100483.13;4992320;28;45486;-86
2023/03/10 11:07:53;;;;;;;;;5.00;3.33;;;;;18.23;55.13;100486.59;4989859;28;45446;-85
2023/03/10 11:10:27;;;;;;;;;3.00;2.67;;;;;18.18;54.38;100488.34;4979954;28;45515;-85
2023/03/10 11:13:43;;;;;;;;;5.00;3.00;;;;;18.22;54.75;100495.41;4997407;28;45339;-84
2023/03/10 11:16:21;;;;;;;;;4.33;4.33;;;;;18.23;54.68;100487.47;4977167;28;46041;-84
2023/03/10 11:18:58;;;;;;;;;5.67;3.67;;;;;18.30;54.45;100498.91;4984173;28;45504;-85
2023/03/10 11:21:31;;;;;;;;;5.33;2.67;;;;;18.36;54.88;100483.00;4988706;28;45475;-86
2023/03/10 11:24:18;;;;;;;;;4.33;3.00;;;;;18.45;54.73;100501.50;4996196;28;45476;-84
2023/03/10 11:26:57;;;;;;;;;5.33;4.00;;;;;18.42;54.63;100490.06;4996088;28;46205;-86
2023/03/10 11:29:26;;;;;;;;;5.00;2.00;;;;;18.22;55.15;100479.53;4996603;28;45529;-85
2023/03/10 11:32:14;;;;;;;;;4.33;3.33;;;;;18.24;55.56;100486.59;4996280;28;45517;-84
2023/03/10 11:34:52;;;;;;;;;4.33;3.33;;;;;18.43;54.89;100470.69;5000379;28;45302;-82